Time;durP1;ratioP1;P1;durP2;ratioP2;P2;SDS_P1;SDS_P2;PMS_P1;PMS_P2;Temp;Humidity;BMP_temperature;BMP_pressure;BME280_temperature;BME280_humidity;BME280_pressure;Samples;Min_cycle;Max_cycle;Signal;HPM_P1;HPM_P2
2023/01/21 00:01:04;;;;;;;;;12.75;11.00;;;;;;;;4898151;29;45414;-74
2023/01/21 00:03:30;;;;;;;;;8.75;7.50;;;;;;;;4899460;29;45437;-74
2023/01/21 00:05:57;;;;;;;;;9.25;8.75;;;;;;;;4899498;28;45577;-74
2023/01/21 00:08:22;;;;;;;;;14.25;12.75;;;;;;;;4899604;28;45298;-74
2023/01/21 00:10:47;;;;;;;;;13.50;9.25;;;;;;;;4897897;29;45545;-75
2023/01/21 00:13:12;;;;;;;;;11.50;11.50;;;;;;;;4898780;28;45953;-74
2023/01/21 00:15:38;;;;;;;;;10.00;9.00;;;;;;;;4898918;28;45758;-73
2023/01/21 00:18:03;;;;;;;;;10.75;10.00;;;;;;;;4899554;29;45322;-74
2023/01/21 00:20:28;;;;;;;;;8.00;6.00;;;;;;;;4899326;28;45374;-74
2023/01/21 00:22:54;;;;;;;;;8.00;7.00;;;;;;;;4899025;28;45354;-75
2023/01/21 00:25:19;;;;;;;;;7.50;7.50;;;;;;;;4899313;29;45490;-75
2023/01/21 00:27:44;;;;;;;;;5.00;5.00;;;;;;;;4899285;28;45472;-74
2023/01/21 00:30:10;;;;;;;;;7.50;7.50;;;;;;;;4899288;28;45714;-75
2023/01/21 00:32:35;;;;;;;;;7.50;6.00;;;;;;;;4899359;28;47403;-76
2023/01/21 00:35:00;;;;;;;;;8.75;5.00;;;;;;;;4897351;29;45627;-76
2023/01/21 00:37:26;;;;;;;;;7.00;6.00;;;;;;;;4899142;28;45399;-74
2023/01/21 00:39:51;;;;;;;;;6.00;4.25;;;;;;;;4899180;28;45320;-75
2023/01/21 00:42:16;;;;;;;;;7.75;5.50;;;;;;;;4898291;29;45226;-75
2023/01/21 00:44:41;;;;;;;;;4.50;4.50;;;;;;;;4899271;28;45338;-75
2023/01/21 00:47:06;;;;;;;;;7.75;6.00;;;;;;;;4899429;28;45498;-75
2023/01/21 00:49:32;;;;;;;;;6.25;4.50;;;;;;;;4903326;28;45427;-74
2023/01/21 00:51:57;;;;;;;;;6.00;5.00;;;;;;;;4904739;28;46151;-75
2023/01/21 00:54:23;;;;;;;;;5.75;4.00;;;;;;;;4908791;28;46032;-75
2023/01/21 00:56:48;;;;;;;;;6.50;4.00;;;;;;;;4901559;28;45361;-73
2023/01/21 00:59:13;;;;;;;;;3.00;2.25;;;;;;;;4898705;28;45447;-74
2023/01/21 01:01:39;;;;;;;;;8.25;6.00;;;;;;;;4898349;28;46108;-74
2023/01/21 01:04:07;;;;;;;;;8.50;7.00;;;;;;;;4898903;28;45319;-75
2023/01/21 01:06:32;;;;;;;;;7.00;4.00;;;;;;;;4897256;28;45347;-74
2023/01/21 01:08:58;;;;;;;;;4.50;4.50;;;;;;;;4898106;28;45355;-75
2023/01/21 01:11:25;;;;;;;;;5.50;5.50;;;;;;;;4897172;28;46132;-76
2023/01/21 01:13:51;;;;;;;;;4.75;4.50;;;;;;;;4898333;28;45373;-76
2023/01/21 01:16:16;;;;;;;;;7.00;6.00;;;;;;;;4898367;28;45494;-76
2023/01/21 01:18:42;;;;;;;;;5.00;4.00;;;;;;;;4899095;28;45296;-76
2023/01/21 01:21:10;;;;;;;;;2.75;2.25;;;;;;;;4897055;29;47671;-76
2023/01/21 01:23:35;;;;;;;;;3.75;3.75;;;;;;;;4898347;28;45383;-76
2023/01/21 01:26:02;;;;;;;;;5.50;5.50;;;;;;;;4882121;29;45433;-76
2023/01/21 01:28:27;;;;;;;;;5.50;5.50;;;;;;;;4898737;28;45351;-76
2023/01/21 01:30:53;;;;;;;;;7.00;7.00;;;;;;;;4897519;29;46921;-74
2023/01/21 01:33:18;;;;;;;;;7.25;7.25;;;;;;;;4898718;28;45465;-75
2023/01/21 01:35:46;;;;;;;;;7.75;7.75;;;;;;;;4898830;28;45382;-76
2023/01/21 01:38:12;;;;;;;;;7.50;6.50;;;;;;;;4898858;28;45595;-76
2023/01/21 01:40:39;;;;;;;;;10.50;8.00;;;;;;;;4898958;28;46338;-76
2023/01/21 01:43:09;;;;;;;;;10.25;8.75;;;;;;;;4898365;28;45316;-76
2023/01/21 01:45:34;;;;;;;;;11.50;8.75;;;;;;;;4898846;28;45278;-76
2023/01/21 01:48:02;;;;;;;;;12.00;9.00;;;;;;;;4898722;29;45340;-75
2023/01/21 01:50:32;;;;;;;;;8.50;8.50;;;;;;;;4898330;28;46403;-75
2023/01/21 01:52:59;;;;;;;;;12.75;10.25;;;;;;;;4913354;28;45386;-75
2023/01/21 01:55:25;;;;;;;;;13.00;12.00;;;;;;;;4917717;28;45405;-73
2023/01/21 01:57:52;;;;;;;;;13.25;12.25;;;;;;;;4916192;28;45426;-74
2023/01/21 02:00:18;;;;;;;;;11.00;11.00;;;;;;;;4917534;28;45418;-73
2023/01/21 02:03:43;;;;;;;;;11.75;8.50;;;;;;;;4917522;28;45292;-73
2023/01/21 02:05:29;;;;;;;;;12.25;11.00;;;;;;;;4917272;28;45580;-72
2023/01/21 02:07:54;;;;;;;;;12.50;10.75;;;;;;;;4917254;28;45545;-75
2023/01/21 02:10:19;;;;;;;;;14.25;11.75;;;;;;;;4917420;28;45437;-74
2023/01/21 02:12:46;;;;;;;;;9.00;8.00;;;;;;;;4916160;28;45375;-73
2023/01/21 02:15:11;;;;;;;;;11.00;10.50;;;;;;;;4917683;28;45413;-73
2023/01/21 02:17:36;;;;;;;;;11.75;9.25;;;;;;;;4917351;28;45413;-73
2023/01/21 02:20:04;;;;;;;;;11.50;11.50;;;;;;;;4917634;28;45895;-73
2023/01/21 02:22:29;;;;;;;;;11.50;11.50;;;;;;;;4919126;28;45350;-73
2023/01/21 02:25:04;;;;;;;;;11.50;11.50;;;;;;;;4920455;28;45369;-73
2023/01/21 02:27:41;;;;;;;;;15.50;12.00;;;;;;;;4920415;28;45428;-76
2023/01/21 02:30:24;;;;;;;;;9.25;9.25;;;;;;;;4920251;28;45470;-75
2023/01/21 02:32:59;;;;;;;;;11.00;9.25;;;;;;;;4920839;28;45426;-75
2023/01/21 02:35:38;;;;;;;;;10.75;9.00;;;;;;;;4920642;28;45420;-75
2023/01/21 02:38:07;;;;;;;;;11.25;11.25;;;;;;;;4920814;28;45437;-74
2023/01/21 02:40:35;;;;;;;;;12.50;11.50;;;;;;;;4921156;28;46296;-75
2023/01/21 02:43:06;;;;;;;;;13.25;12.75;;;;;;;;4920391;28;45811;-75
2023/01/21 02:45:34;;;;;;;;;10.00;8.50;;;;;;;;4920962;28;45361;-75
2023/01/21 02:48:05;;;;;;;;;11.00;11.00;;;;;;;;4920190;28;45438;-75
2023/01/21 02:50:35;;;;;;;;;15.50;14.25;;;;;;;;4919867;28;45712;-75
2023/01/21 02:53:02;;;;;;;;;13.75;12.75;;;;;;;;4920210;28;45393;-75
2023/01/21 02:55:29;;;;;;;;;12.25;12.25;;;;;;;;4920150;28;45359;-75
2023/01/21 02:57:58;;;;;;;;;11.75;11.25;;;;;;;;4920187;28;45295;-75
2023/01/21 03:00:26;;;;;;;;;18.75;16.25;;;;;;;;4920041;28;46236;-75
2023/01/21 03:03:15;;;;;;;;;15.00;15.00;;;;;;;;4919835;28;45448;-75
2023/01/21 03:06:04;;;;;;;;;9.50;9.50;;;;;;;;4919580;28;45400;-75
2023/01/21 03:08:46;;;;;;;;;12.25;10.75;;;;;;;;4898372;29;45522;-74
2023/01/21 03:11:14;;;;;;;;;15.00;11.50;;;;;;;;4898425;29;45562;-75
2023/01/21 03:19:18;;;;;;;;;19.50;17.75;;;;;;;;4898475;29;45293;-75
2023/01/21 03:21:44;;;;;;;;;16.00;16.00;;;;;;;;4898161;29;45384;-74
2023/01/21 03:24:11;;;;;;;;;16.00;16.00;;;;;;;;4898208;29;45469;-75
2023/01/21 03:26:39;;;;;;;;;23.75;18.00;;;;;;;;4898579;29;45421;-75
2023/01/21 03:29:07;;;;;;;;;20.50;19.50;;;;;;;;4898177;29;45381;-75
2023/01/21 03:31:34;;;;;;;;;18.00;18.00;;;;;;;;4882370;29;46499;-74
2023/01/21 03:34:02;;;;;;;;;22.25;21.25;;;;;;;;4897021;29;45460;-74
2023/01/21 03:36:36;;;;;;;;;23.75;22.00;;;;;;;;4897996;29;45538;-75
2023/01/21 03:39:06;;;;;;;;;27.00;25.00;;;;;;;;4898126;29;45348;-75
2023/01/21 03:41:33;;;;;;;;;24.25;20.75;;;;;;;;4898139;29;45419;-75
2023/01/21 03:43:58;;;;;;;;;18.00;15.50;;;;;;;;4898201;29;45474;-74
2023/01/21 03:46:27;;;;;;;;;17.75;14.75;;;;;;;;4916853;28;45705;-74
2023/01/21 03:48:58;;;;;;;;;11.00;9.00;;;;;;;;4919201;28;45394;-75
2023/01/21 03:51:30;;;;;;;;;15.75;12.50;;;;;;;;4919193;28;45421;-75
2023/01/21 03:53:56;;;;;;;;;24.50;24.25;;;;;;;;4918156;28;45423;-75
2023/01/21 03:56:22;;;;;;;;;28.75;27.75;;;;;;;;4919465;28;45430;-75
2023/01/21 03:58:47;;;;;;;;;20.00;20.00;;;;;;;;4918805;28;45362;-75
2023/01/21 04:01:12;;;;;;;;;21.50;18.25;;;;;;;;4918579;28;46170;-75
2023/01/21 04:03:39;;;;;;;;;23.00;19.75;;;;;;;;4918641;28;45438;-75
2023/01/21 04:06:05;;;;;;;;;24.25;21.25;;;;;;;;4917607;28;45346;-75
2023/01/21 04:08:30;;;;;;;;;24.00;22.50;;;;;;;;4918574;28;45358;-75
2023/01/21 04:10:55;;;;;;;;;28.50;25.50;;;;;;;;4919023;28;46364;-75
2023/01/21 04:13:20;;;;;;;;;23.75;21.25;;;;;;;;4918631;28;45401;-75
2023/01/21 04:15:45;;;;;;;;;17.75;17.75;;;;;;;;4918744;28;45521;-75
2023/01/21 04:18:11;;;;;;;;;27.75;21.75;;;;;;;;4918431;28;45281;-75
2023/01/21 04:20:36;;;;;;;;;27.25;24.00;;;;;;;;4918666;28;45391;-75
2023/01/21 04:23:01;;;;;;;;;22.00;20.25;;;;;;;;4917208;28;45462;-75
2023/01/21 04:25:26;;;;;;;;;16.75;15.50;;;;;;;;4919090;28;45426;-75
2023/01/21 04:27:51;;;;;;;;;19.75;17.00;;;;;;;;4918813;28;45331;-75
2023/01/21 04:30:17;;;;;;;;;19.25;19.00;;;;;;;;4918648;28;45422;-75
2023/01/21 04:32:42;;;;;;;;;20.25;18.25;;;;;;;;4918764;28;45485;-75
2023/01/21 04:35:07;;;;;;;;;28.25;23.50;;;;;;;;4918898;28;45492;-75
2023/01/21 04:37:32;;;;;;;;;21.25;19.50;;;;;;;;4919306;28;45370;-75
2023/01/21 04:39:57;;;;;;;;;17.00;16.25;;;;;;;;4918809;28;45346;-75
2023/01/21 04:42:23;;;;;;;;;21.75;19.50;;;;;;;;4918664;28;45347;-76
2023/01/21 04:44:48;;;;;;;;;21.75;20.75;;;;;;;;4918497;28;45471;-75
2023/01/21 04:47:13;;;;;;;;;21.75;20.00;;;;;;;;4918486;28;45411;-75
2023/01/21 04:49:38;;;;;;;;;20.75;20.75;;;;;;;;4917355;28;47173;-75
2023/01/21 04:52:04;;;;;;;;;20.00;18.00;;;;;;;;4918298;28;45365;-75
2023/01/21 04:54:29;;;;;;;;;20.00;18.25;;;;;;;;4918583;28;45284;-75
2023/01/21 04:56:54;;;;;;;;;25.00;18.25;;;;;;;;4918415;28;45291;-75
2023/01/21 04:59:19;;;;;;;;;16.25;16.25;;;;;;;;4918423;28;45520;-75
2023/01/21 05:01:45;;;;;;;;;11.50;11.50;;;;;;;;4917894;28;45485;-74
2023/01/21 05:04:10;;;;;;;;;26.00;23.25;;;;;;;;4918706;28;45251;-75
2023/01/21 05:06:35;;;;;;;;;21.50;18.25;;;;;;;;4918326;28;45317;-74
2023/01/21 05:09:00;;;;;;;;;17.50;17.50;;;;;;;;4917840;28;45377;-74
2023/01/21 05:11:25;;;;;;;;;18.75;17.75;;;;;;;;4918033;28;45226;-75
2023/01/21 05:13:50;;;;;;;;;22.00;18.50;;;;;;;;4918345;28;45266;-75
2023/01/21 05:16:16;;;;;;;;;22.25;19.50;;;;;;;;4917929;28;45323;-75
2023/01/21 05:18:41;;;;;;;;;22.50;21.25;;;;;;;;4918239;28;47232;-75
2023/01/21 05:21:06;;;;;;;;;20.50;18.00;;;;;;;;4918188;28;45312;-75
2023/01/21 05:23:32;;;;;;;;;23.00;20.75;;;;;;;;4916586;28;45290;-75
2023/01/21 05:25:57;;;;;;;;;25.00;20.25;;;;;;;;4918362;28;45377;-75
2023/01/21 05:28:23;;;;;;;;;28.00;24.50;;;;;;;;4917806;28;46457;-75
2023/01/21 05:30:48;;;;;;;;;30.50;25.50;;;;;;;;4917787;28;45313;-75
2023/01/21 05:33:13;;;;;;;;;16.50;15.25;;;;;;;;4918180;28;45625;-75
2023/01/21 05:35:38;;;;;;;;;15.00;12.00;;;;;;;;4918006;28;45539;-75
2023/01/21 05:38:04;;;;;;;;;22.00;21.50;;;;;;;;4917556;28;45452;-75
2023/01/21 05:40:29;;;;;;;;;22.50;20.75;;;;;;;;4917714;28;45397;-75
2023/01/21 05:42:54;;;;;;;;;28.50;23.75;;;;;;;;4917498;28;45444;-75
2023/01/21 05:45:19;;;;;;;;;24.25;22.75;;;;;;;;4917714;28;45255;-75
2023/01/21 05:47:44;;;;;;;;;21.75;21.75;;;;;;;;4917646;28;45358;-75
2023/01/21 05:50:10;;;;;;;;;25.75;20.25;;;;;;;;4917717;28;45493;-75
2023/01/21 05:52:35;;;;;;;;;20.25;19.75;;;;;;;;4917929;28;45380;-76
2023/01/21 05:55:01;;;;;;;;;29.00;21.25;;;;;;;;4917751;28;45398;-75
2023/01/21 05:57:26;;;;;;;;;19.50;19.00;;;;;;;;4919885;28;47039;-75
2023/01/21 05:59:51;;;;;;;;;21.25;12.50;;;;;;;;4921149;28;45408;-75
2023/01/21 06:02:16;;;;;;;;;24.75;23.25;;;;;;;;4921998;28;45326;-75
2023/01/21 06:04:42;;;;;;;;;24.75;21.50;;;;;;;;4920295;28;45303;-75
2023/01/21 06:07:07;;;;;;;;;19.75;19.50;;;;;;;;4920774;28;46340;-75
2023/01/21 06:09:32;;;;;;;;;23.75;23.25;;;;;;;;4920971;28;45636;-75
2023/01/21 06:11:57;;;;;;;;;26.25;22.25;;;;;;;;4920856;28;45275;-75
2023/01/21 06:14:23;;;;;;;;;26.25;18.00;;;;;;;;4920417;28;45413;-76
2023/01/21 06:16:48;;;;;;;;;17.00;13.50;;;;;;;;4920505;28;45584;-75
2023/01/21 06:19:13;;;;;;;;;23.75;23.50;;;;;;;;4920262;28;45363;-75
2023/01/21 06:21:38;;;;;;;;;28.75;25.00;;;;;;;;4919554;28;45421;-75
2023/01/21 06:24:04;;;;;;;;;23.75;19.50;;;;;;;;4920732;28;45466;-75
2023/01/21 06:26:29;;;;;;;;;24.50;24.00;;;;;;;;4920362;28;46106;-75
2023/01/21 06:28:55;;;;;;;;;23.00;20.50;;;;;;;;4920447;28;45397;-75
2023/01/21 06:31:20;;;;;;;;;26.25;22.75;;;;;;;;4918967;28;45356;-75
2023/01/21 06:33:46;;;;;;;;;27.00;24.75;;;;;;;;4920124;28;45405;-75
2023/01/21 06:36:11;;;;;;;;;22.50;22.50;;;;;;;;4920257;28;46289;-75
2023/01/21 06:38:36;;;;;;;;;25.25;21.25;;;;;;;;4920483;28;45387;-75
2023/01/21 06:41:02;;;;;;;;;30.50;25.00;;;;;;;;4919184;28;45346;-75
2023/01/21 06:43:27;;;;;;;;;30.50;29.75;;;;;;;;4920119;28;45502;-75
2023/01/21 06:45:53;;;;;;;;;22.75;21.75;;;;;;;;4920135;28;45417;-75
2023/01/21 06:48:18;;;;;;;;;27.75;26.75;;;;;;;;4920036;28;45437;-75
2023/01/21 06:50:43;;;;;;;;;35.25;28.25;;;;;;;;4920362;28;45421;-75
2023/01/21 06:53:08;;;;;;;;;28.25;26.25;;;;;;;;4920123;28;45633;-75
2023/01/21 06:55:34;;;;;;;;;20.50;19.25;;;;;;;;4920017;28;45988;-75
2023/01/21 06:57:59;;;;;;;;;35.00;24.50;;;;;;;;4918732;28;45405;-75
2023/01/21 07:00:24;;;;;;;;;33.00;26.75;;;;;;;;4920292;28;45382;-76
2023/01/21 07:02:54;;;;;;;;;34.25;31.50;;;;;;;;4919894;28;45379;-76
2023/01/21 07:05:19;;;;;;;;;33.75;30.75;;;;;;;;4919941;28;45278;-75
2023/01/21 07:07:44;;;;;;;;;25.50;25.00;;;;;;;;4919632;28;45350;-75
2023/01/21 07:10:10;;;;;;;;;28.75;25.00;;;;;;;;4911464;28;45362;-73
2023/01/21 07:12:35;;;;;;;;;30.00;28.50;;;;;;;;4900469;29;45371;-75
2023/01/21 07:15:00;;;;;;;;;38.25;36.75;;;;;;;;4901116;29;46079;-76
2023/01/21 07:17:25;;;;;;;;;36.00;32.50;;;;;;;;4901084;28;45307;-75
2023/01/21 07:19:51;;;;;;;;;34.50;31.50;;;;;;;;4901341;28;45239;-75
2023/01/21 07:22:16;;;;;;;;;30.75;27.00;;;;;;;;4900993;28;45362;-75
2023/01/21 07:24:41;;;;;;;;;39.00;34.50;;;;;;;;4900736;28;45845;-75
2023/01/21 07:27:06;;;;;;;;;36.00;32.75;;;;;;;;4900493;28;45394;-75
2023/01/21 07:29:31;;;;;;;;;32.75;30.75;;;;;;;;4900769;28;45366;-75
2023/01/21 07:31:57;;;;;;;;;35.00;30.50;;;;;;;;4900901;28;45219;-75
2023/01/21 07:34:22;;;;;;;;;39.00;34.00;;;;;;;;4900512;28;45364;-73
2023/01/21 07:36:47;;;;;;;;;37.25;33.50;;;;;;;;4900641;28;45430;-73
2023/01/21 07:39:12;;;;;;;;;30.25;26.75;;;;;;;;4900834;28;45294;-73
2023/01/21 07:41:37;;;;;;;;;51.50;42.00;;;;;;;;4900132;28;45152;-73
2023/01/21 07:44:03;;;;;;;;;36.25;28.75;;;;;;;;4900477;29;45248;-73
2023/01/21 07:46:28;;;;;;;;;38.25;36.50;;;;;;;;4900143;29;45235;-73
2023/01/21 07:48:53;;;;;;;;;42.50;34.00;;;;;;;;4900282;28;45283;-74
2023/01/21 07:51:19;;;;;;;;;34.50;26.50;;;;;;;;4902168;28;45318;-74
2023/01/21 07:53:44;;;;;;;;;29.50;27.25;;;;;;;;4919039;28;45335;-75
2023/01/21 07:56:09;;;;;;;;;40.75;33.25;;;;;;;;4918798;28;45335;-75
2023/01/21 07:58:35;;;;;;;;;42.50;37.00;;;;;;;;4919612;28;45314;-75
2023/01/21 08:01:04;;;;;;;;;30.50;26.00;;;;;;;;4919182;28;45364;-75
2023/01/21 08:03:29;;;;;;;;;33.75;29.00;;;;;;;;4919086;28;45335;-75
2023/01/21 08:05:55;;;;;;;;;37.50;34.25;;;;;;;;4913192;28;45338;-75
2023/01/21 08:08:20;;;;;;;;;33.25;24.25;;;;;;;;4900233;28;45493;-75
2023/01/21 08:10:50;;;;;;;;;39.00;37.50;;;;;;;;4900133;28;45347;-76
2023/01/21 08:13:15;;;;;;;;;46.25;36.00;;;;;;;;4900069;28;45585;-76
2023/01/21 08:15:40;;;;;;;;;42.50;37.50;;;;;;;;4899805;28;45494;-75
2023/01/21 08:18:05;;;;;;;;;43.50;40.50;;;;;;;;4900159;28;45389;-77
2023/01/21 08:20:31;;;;;;;;;39.25;37.25;;;;;;;;4899300;28;45347;-75
2023/01/21 08:22:58;;;;;;;;;44.25;39.00;;;;;;;;4899737;28;47213;-76
2023/01/21 08:25:23;;;;;;;;;46.75;39.25;;;;;;;;4899909;29;45485;-76
2023/01/21 08:27:48;;;;;;;;;43.50;38.00;;;;;;;;4900011;28;45372;-76
2023/01/21 08:30:14;;;;;;;;;41.25;37.50;;;;;;;;4898414;29;45413;-75
2023/01/21 08:32:39;;;;;;;;;40.75;37.50;;;;;;;;4899710;29;45898;-76
2023/01/21 08:35:04;;;;;;;;;35.50;33.25;;;;;;;;4899628;28;45356;-75
2023/01/21 08:37:30;;;;;;;;;28.50;25.75;;;;;;;;4899749;28;45328;-75
2023/01/21 08:39:55;;;;;;;;;35.25;32.00;;;;;;;;4899467;28;45490;-76
2023/01/21 08:42:20;;;;;;;;;51.25;39.75;;;;;;;;4899261;28;45477;-76
2023/01/21 08:44:45;;;;;;;;;42.75;37.25;;;;;;;;4899477;29;45275;-76
2023/01/21 08:47:10;;;;;;;;;36.25;32.25;;;;;;;;4899767;28;45410;-77
2023/01/21 08:49:36;;;;;;;;;39.50;34.25;;;;;;;;4898616;29;45311;-78
2023/01/21 08:52:01;;;;;;;;;49.00;39.50;;;;;;;;4906883;28;45400;-76
2023/01/21 08:54:26;;;;;;;;;37.50;32.00;;;;;;;;4918123;28;45263;-76
2023/01/21 08:56:51;;;;;;;;;43.25;38.25;;;;;;;;4918934;28;45309;-77
2023/01/21 08:59:16;;;;;;;;;40.25;32.50;;;;;;;;4918888;28;45476;-76
2023/01/21 09:01:42;;;;;;;;;51.25;41.75;;;;;;;;4918428;28;45312;-76
2023/01/21 09:04:07;;;;;;;;;44.25;39.25;;;;;;;;4919089;28;45301;-77
2023/01/21 09:06:33;;;;;;;;;56.00;42.00;;;;;;;;4917714;28;45240;-76
2023/01/21 09:08:58;;;;;;;;;47.00;40.50;;;;;;;;4918609;28;45312;-77
2023/01/21 09:11:24;;;;;;;;;43.75;38.50;;;;;;;;4918661;28;45305;-76
2023/01/21 09:13:49;;;;;;;;;61.00;51.00;;;;;;;;4919062;28;45487;-77
2023/01/21 09:16:15;;;;;;;;;38.00;36.75;;;;;;;;4919669;28;45302;-77
2023/01/21 09:18:41;;;;;;;;;39.50;35.50;;;;;;;;4919782;28;45402;-76
2023/01/21 09:21:07;;;;;;;;;49.75;40.75;;;;;;;;4918096;28;46539;-77
2023/01/21 09:23:33;;;;;;;;;46.00;39.00;;;;;;;;4917649;28;45331;-77
2023/01/21 09:26:15;;;;;;;;;40.75;36.25;;;;;;;;4918499;28;45383;-77
2023/01/21 09:28:41;;;;;;;;;2.00;0.00;;;;;;;;4918187;28;45315;-76
2023/01/21 09:31:10;;;;;;;;;43.75;38.00;;;;;;;;4916845;28;45488;-77
2023/01/21 09:33:37;;;;;;;;;50.50;41.00;;;;;;;;4918164;28;45430;-75
2023/01/21 09:36:03;;;;;;;;;43.50;33.25;;;;;;;;4917772;28;45466;-75
2023/01/21 09:38:29;;;;;;;;;49.50;41.75;;;;;;;;4917674;28;45514;-76
2023/01/21 09:40:57;;;;;;;;;41.25;35.75;;;;;;;;4917927;28;45924;-76
2023/01/21 09:43:26;;;;;;;;;37.75;36.00;;;;;;;;4917852;28;45359;-75
2023/01/21 09:45:54;;;;;;;;;47.25;40.50;;;;;;;;4917787;28;45390;-75
2023/01/21 09:48:31;;;;;;;;;11.50;6.00;;;;;;;;4917554;28;45374;-75
2023/01/21 09:50:58;;;;;;;;;42.50;36.25;;;;;;;;4916640;28;45700;-76
2023/01/21 09:53:26;;;;;;;;;55.25;44.00;;;;;;;;4917690;28;45518;-74
2023/01/21 09:55:51;;;;;;;;;53.75;42.25;;;;;;;;4917798;28;45291;-76
2023/01/21 09:58:17;;;;;;;;;57.00;46.50;;;;;;;;4917582;28;45345;-75
2023/01/21 10:00:45;;;;;;;;;45.75;39.25;;;;;;;;4917461;28;46148;-74
2023/01/21 10:03:28;;;;;;;;;44.25;37.50;;;;;;;;4917552;28;45346;-77
2023/01/21 10:05:54;;;;;;;;;56.25;41.50;;;;;;;;4917408;28;45325;-77
2023/01/21 10:08:19;;;;;;;;;50.75;40.50;;;;;;;;4917075;28;45549;-77
2023/01/21 10:11:04;;;;;;;;;39.75;36.75;;;;;;;;4917443;28;46211;-78
2023/01/21 10:13:32;;;;;;;;;46.25;40.75;;;;;;;;4917029;28;45381;-77
2023/01/21 10:16:09;;;;;;;;;43.50;36.75;;;;;;;;4917573;28;45394;-76
2023/01/21 10:18:37;;;;;;;;;41.25;39.00;;;;;;;;4917464;28;45305;-76
2023/01/21 10:21:12;;;;;;;;;38.25;32.75;;;;;;;;4917158;28;45569;-76
2023/01/21 10:23:41;;;;;;;;;30.75;27.50;;;;;;;;4917385;28;45306;-77
2023/01/21 10:26:09;;;;;;;;;50.00;40.00;;;;;;;;4917298;28;45385;-77
2023/01/21 10:28:37;;;;;;;;;46.00;40.25;;;;;;;;4917570;28;45391;-77
2023/01/21 10:31:10;;;;;;;;;45.00;37.25;;;;;;;;4916032;28;45550;-77
2023/01/21 10:33:35;;;;;;;;;33.00;28.75;;;;;;;;4917907;28;45417;-75
2023/01/21 10:36:10;;;;;;;;;50.00;39.25;;;;;;;;4915955;28;45377;-76
2023/01/21 10:38:51;;;;;;;;;37.50;34.00;;;;;;;;4906474;28;45292;-75
2023/01/21 10:41:29;;;;;;;;;37.00;32.00;;;;;;;;4898561;28;46395;-75
2023/01/21 10:44:03;;;;;;;;;47.50;39.00;;;;;;;;4900618;28;45451;-77
2023/01/21 10:46:45;;;;;;;;;45.50;39.75;;;;;;;;4901439;28;45371;-75
2023/01/21 10:49:26;;;;;;;;;45.00;40.00;;;;;;;;4910829;28;45488;-76
2023/01/21 10:52:05;;;;;;;;;44.25;39.25;;;;;;;;4920199;28;46417;-75
2023/01/21 10:54:37;;;;;;;;;48.00;41.50;;;;;;;;4920353;28;45465;-75
2023/01/21 10:57:08;;;;;;;;;57.00;47.75;;;;;;;;4920321;28;45422;-76
2023/01/21 10:59:36;;;;;;;;;62.75;49.50;;;;;;;;4920384;28;45437;-75
2023/01/21 11:02:09;;;;;;;;;64.25;51.50;;;;;;;;4920206;28;46417;-75
2023/01/21 11:04:36;;;;;;;;;50.75;41.50;;;;;;;;4919985;28;45544;-77
2023/01/21 11:07:03;;;;;;;;;66.50;53.25;;;;;;;;4920127;28;45314;-76
2023/01/21 11:09:30;;;;;;;;;53.00;45.00;;;;;;;;4920189;28;45303;-76
2023/01/21 11:11:56;;;;;;;;;61.00;50.50;;;;;;;;4914808;28;46469;-75
2023/01/21 11:14:23;;;;;;;;;51.25;43.50;;;;;;;;4900358;28;45505;-76
2023/01/21 11:16:49;;;;;;;;;44.50;36.50;;;;;;;;4912426;28;45321;-76
2023/01/21 11:19:16;;;;;;;;;50.00;41.25;;;;;;;;4918681;28;45326;-76
2023/01/21 11:21:55;;;;;;;;;50.00;40.50;;;;;;;;4903558;28;46320;-75
2023/01/21 11:24:22;;;;;;;;;48.25;39.00;;;;;;;;4878265;28;45464;-74
2023/01/21 11:26:49;;;;;;;;;56.75;45.00;;;;;;;;4894162;28;45355;-74
2023/01/21 11:29:15;;;;;;;;;44.25;36.75;;;;;;;;4900697;28;45401;-75
2023/01/21 11:31:43;;;;;;;;;49.25;40.25;;;;;;;;4900580;28;46314;-76
2023/01/21 11:34:16;;;;;;;;;51.25;41.25;;;;;;;;4900492;28;45364;-77
2023/01/21 11:36:58;;;;;;;;;53.75;44.00;;;;;;;;4900343;28;45475;-76
2023/01/21 11:39:28;;;;;;;;;57.00;43.50;;;;;;;;4899431;29;45330;-77
2023/01/21 11:41:54;;;;;;;;;41.25;37.50;;;;;;;;4900742;28;46029;-76
2023/01/21 11:44:20;;;;;;;;;46.25;38.00;;;;;;;;4900371;28;45562;-76
2023/01/21 11:46:45;;;;;;;;;46.75;38.00;;;;;;;;4900457;28;45388;-75
2023/01/21 11:49:10;;;;;;;;;53.50;43.75;;;;;;;;4900370;28;45466;-76
2023/01/21 11:51:36;;;;;;;;;45.75;37.00;;;;;;;;4904377;28;45471;-77
2023/01/21 11:54:20;;;;;;;;;25.00;22.75;;;;;;;;4918743;28;45560;-75
2023/01/21 11:56:53;;;;;;;;;31.00;30.00;;;;;;;;4903469;28;45433;-74
2023/01/21 11:59:24;;;;;;;;;36.00;34.50;;;;;;;;4889145;28;45481;-74
2023/01/21 12:02:03;;;;;;;;;35.75;28.75;;;;;;;;4898623;29;47083;-75
2023/01/21 12:04:29;;;;;;;;;38.25;34.75;;;;;;;;4898285;28;45414;-74
2023/01/21 12:06:57;;;;;;;;;30.00;29.75;;;;;;;;4898966;29;45542;-75
2023/01/21 12:09:23;;;;;;;;;51.00;41.25;;;;;;;;4899528;28;45314;-74
2023/01/21 12:12:04;;;;;;;;;41.00;32.25;;;;;;;;4899303;28;45356;-75
2023/01/21 12:14:42;;;;;;;;;36.25;35.25;;;;;;;;4899433;28;45414;-75
2023/01/21 12:17:20;;;;;;;;;40.25;35.00;;;;;;;;4899057;28;45454;-75
2023/01/21 12:19:57;;;;;;;;;35.25;33.25;;;;;;;;4899411;28;45319;-75
2023/01/21 12:22:45;;;;;;;;;37.00;35.25;;;;;;;;4899118;28;46365;-75
2023/01/21 12:25:10;;;;;;;;;32.00;26.50;;;;;;;;4895629;29;45571;-72
2023/01/21 12:27:51;;;;;;;;;48.50;40.00;;;;;;;;4899216;28;45383;-73
2023/01/21 12:30:34;;;;;;;;;39.75;33.75;;;;;;;;4898715;28;45268;-73
2023/01/21 12:33:02;;;;;;;;;49.50;40.75;;;;;;;;4898814;28;45733;-74
2023/01/21 12:35:51;;;;;;;;;46.25;40.00;;;;;;;;4899646;28;45332;-75
2023/01/21 12:38:19;;;;;;;;;28.00;25.75;;;;;;;;4893114;29;45413;-76
2023/01/21 12:40:53;;;;;;;;;38.25;33.75;;;;;;;;4900057;28;45550;-76
2023/01/21 12:43:21;;;;;;;;;46.75;38.75;;;;;;;;4884174;29;45488;-76
2023/01/21 12:46:16;;;;;;;;;31.75;28.75;;;;;;;;4898637;28;45419;-75
2023/01/21 12:48:52;;;;;;;;;46.25;39.75;;;;;;;;4893730;29;45645;-76
2023/01/21 12:51:20;;;;;;;;;48.75;36.25;;;;;;;;4907967;28;45453;-76
2023/01/21 12:53:52;;;;;;;;;33.50;28.00;;;;;;;;4909723;28;45322;-76
2023/01/21 12:56:36;;;;;;;;;34.50;32.00;;;;;;;;4897568;29;45523;-77
2023/01/21 12:59:04;;;;;;;;;37.75;35.50;;;;;;;;4898553;28;45450;-77
2023/01/21 13:01:32;;;;;;;;;33.75;30.75;;;;;;;;4898459;28;45474;-77
2023/01/21 13:04:03;;;;;;;;;47.75;39.25;;;;;;;;4898882;28;46061;-76
2023/01/21 13:06:33;;;;;;;;;35.50;31.25;;;;;;;;4907269;28;45406;-78
2023/01/21 13:09:06;;;;;;;;;38.75;34.00;;;;;;;;4900083;28;45542;-76
2023/01/21 13:11:42;;;;;;;;;42.00;35.25;;;;;;;;4898554;28;45405;-75
2023/01/21 13:14:07;;;;;;;;;40.00;35.25;;;;;;;;4886103;28;46296;-76
2023/01/21 13:16:39;;;;;;;;;46.25;39.00;;;;;;;;4897804;28;45401;-77
2023/01/21 13:19:05;;;;;;;;;41.50;37.00;;;;;;;;4898785;28;45441;-77
2023/01/21 13:21:39;;;;;;;;;26.75;23.00;;;;;;;;4898503;28;45367;-77
2023/01/21 13:24:21;;;;;;;;;36.00;31.25;;;;;;;;4898659;29;46008;-76
2023/01/21 13:27:10;;;;;;;;;37.75;36.75;;;;;;;;4898675;28;45330;-76
2023/01/21 13:29:44;;;;;;;;;43.00;36.75;;;;;;;;4891907;29;45434;-77
2023/01/21 13:32:12;;;;;;;;;40.75;36.25;;;;;;;;4898186;28;45435;-76
2023/01/21 13:34:47;;;;;;;;;33.75;32.25;;;;;;;;4898152;28;45386;-76
2023/01/21 13:37:33;;;;;;;;;42.75;37.25;;;;;;;;4898171;28;45329;-76
2023/01/21 13:40:05;;;;;;;;;42.50;35.75;;;;;;;;4892495;29;45371;-76
2023/01/21 13:42:35;;;;;;;;;38.75;32.75;;;;;;;;4884672;28;45477;-76
2023/01/21 13:45:19;;;;;;;;;43.75;37.50;;;;;;;;4896302;29;45298;-76
2023/01/21 13:47:44;;;;;;;;;40.00;36.00;;;;;;;;4887096;29;45471;-77
2023/01/21 13:50:20;;;;;;;;;40.25;35.25;;;;;;;;4885483;28;45375;-77
2023/01/21 13:52:45;;;;;;;;;38.75;36.25;;;;;;;;4895580;28;45354;-76
2023/01/21 13:55:11;;;;;;;;;44.50;38.50;;;;;;;;4882312;28;45411;-76
2023/01/21 13:57:55;;;;;;;;;43.50;31.75;;;;;;;;4895493;28;45627;-76
2023/01/21 14:00:25;;;;;;;;;37.75;34.00;;;;;;;;4898265;28;45394;-75
2023/01/21 14:02:50;;;;;;;;;36.50;28.50;;;;;;;;4897902;28;45470;-76
2023/01/21 14:05:20;;;;;;;;;39.00;35.50;;;;;;;;4897956;28;45486;-77
2023/01/21 14:07:49;;;;;;;;;32.75;29.50;;;;;;;;4897832;29;45454;-76
2023/01/21 14:10:14;;;;;;;;;33.00;28.50;;;;;;;;4898134;28;45602;-76
2023/01/21 14:12:58;;;;;;;;;32.00;29.50;;;;;;;;4897770;28;45644;-76
2023/01/21 14:15:29;;;;;;;;;31.00;29.25;;;;;;;;4883837;29;47483;-75
2023/01/21 14:18:04;;;;;;;;;38.25;32.00;;;;;;;;4898808;28;45418;-76
2023/01/21 14:20:38;;;;;;;;;29.00;29.00;;;;;;;;4899639;29;45430;-77
2023/01/21 14:23:12;;;;;;;;;38.00;36.50;;;;;;;;4900517;28;45608;-77
2023/01/21 14:25:37;;;;;;;;;34.50;33.00;;;;;;;;4902538;28;47607;-76
2023/01/21 14:28:21;;;;;;;;;42.75;36.25;;;;;;;;4899117;28;45397;-76
2023/01/21 14:30:48;;;;;;;;;41.25;34.25;;;;;;;;4900570;28;45406;-77
2023/01/21 14:33:19;;;;;;;;;35.75;32.75;;;;;;;;4900802;28;45510;-75